Time;durP1;ratioP1;P1;durP2;ratioP2;P2;SDS_P1;SDS_P2;PMS_P1;PMS_P2;Temp;Humidity;BMP_temperature;BMP_pressure;BME280_temperature;BME280_humidity;BME280_pressure;Samples;Min_cycle;Max_cycle;Signal;HPM_P1;HPM_P2
2023/04/01 00:00:17;;;;;;;7.38;1.52;;;12.60;82.20;;;;;;5045334;28;20021;-62
2023/04/01 00:02:43;;;;;;;6.25;1.90;;;12.60;82.20;;;;;;5019986;28;20033;-62
2023/04/01 00:05:10;;;;;;;5.40;1.70;;;12.60;82.20;;;;;;5035528;28;20503;-62
2023/04/01 00:07:36;;;;;;;6.10;1.58;;;12.60;82.20;;;;;;5037574;28;20038;-62
2023/04/01 00:10:04;;;;;;;2.45;1.40;;;12.60;82.20;;;;;;5042946;28;20032;-62
2023/04/01 00:12:30;;;;;;;4.00;1.40;;;12.60;82.30;;;;;;5039128;28;20112;-62
2023/04/01 00:14:55;;;;;;;5.05;1.73;;;12.60;82.30;;;;;;5049520;28;20068;-62
2023/04/01 00:17:21;;;;;;;6.43;1.45;;;12.60;82.20;;;;;;5039231;28;20017;-62
2023/04/01 00:19:48;;;;;;;5.20;1.52;;;12.60;82.20;;;;;;5040506;28;20029;-61
2023/04/01 00:22:13;;;;;;;5.47;1.73;;;12.60;82.30;;;;;;5039200;28;20033;-62
2023/04/01 00:24:39;;;;;;;4.32;1.50;;;12.60;82.30;;;;;;5046365;28;20162;-61
2023/04/01 00:27:05;;;;;;;4.95;1.90;;;12.60;82.30;;;;;;5039625;28;20067;-62
2023/04/01 00:29:32;;;;;;;4.93;1.80;;;12.60;82.40;;;;;;5035298;28;20392;-62
2023/04/01 00:31:58;;;;;;;3.05;1.40;;;12.60;82.40;;;;;;5032393;28;20037;-62
2023/04/01 00:34:24;;;;;;;4.00;1.50;;;12.60;82.50;;;;;;5039178;28;20029;-62
2023/04/01 00:36:52;;;;;;;5.07;1.80;;;12.60;82.50;;;;;;5048990;28;20061;-62
2023/04/01 00:39:18;;;;;;;4.15;1.80;;;12.60;82.50;;;;;;5033138;28;20029;-62
2023/04/01 00:41:44;;;;;;;3.78;1.73;;;12.60;82.50;;;;;;5039879;28;20043;-62
2023/04/01 00:44:22;;;;;;;4.05;1.85;;;12.60;82.60;;;;;;5038459;28;20112;-62
2023/04/01 00:46:48;;;;;;;6.03;2.10;;;12.60;82.60;;;;;;5043331;28;20361;-61
2023/04/01 00:49:18;;;;;;;4.85;2.15;;;12.60;82.60;;;;;;5032401;28;20025;-62
2023/04/01 00:51:47;;;;;;;5.53;2.20;;;12.60;82.70;;;;;;5030837;28;20025;-62
2023/04/01 00:54:16;;;;;;;5.15;2.55;;;12.60;82.70;;;;;;5034139;28;20040;-62
2023/04/01 00:56:49;;;;;;;4.47;2.17;;;12.60;82.70;;;;;;5055584;28;20048;-62
2023/04/01 00:59:22;;;;;;;5.57;2.22;;;12.60;82.80;;;;;;5038117;28;20026;-62
2023/04/01 01:01:47;;;;;;;5.35;2.58;;;12.60;82.80;;;;;;5035169;28;20430;-61
2023/04/01 01:04:26;;;;;;;6.82;2.90;;;12.60;82.70;;;;;;5035208;28;20065;-62
2023/04/01 01:06:57;;;;;;;8.18;3.58;;;12.60;82.80;;;;;;5055319;28;20123;-62
2023/04/01 01:09:25;;;;;;;7.53;3.05;;;12.60;82.80;;;;;;5036395;28;20032;-62
2023/04/01 01:12:06;;;;;;;7.65;3.72;;;12.60;82.70;;;;;;5051844;28;20389;-62
2023/04/01 01:14:51;;;;;;;8.75;4.18;;;12.60;82.70;;;;;;5036648;28;20108;-62
2023/04/01 01:17:38;;;;;;;8.88;4.78;;;12.60;82.80;;;;;;5030208;28;20071;-62
2023/04/01 01:20:20;;;;;;;8.45;4.18;;;12.60;82.70;;;;;;5020350;28;20034;-62
2023/04/01 01:23:13;;;;;;;8.25;4.53;;;12.60;82.80;;;;;;5047793;28;20126;-62
2023/04/01 01:25:56;;;;;;;8.40;4.63;;;12.60;82.80;;;;;;5038760;28;20068;-62
2023/04/01 01:29:00;;;;;;;8.50;5.05;;;12.60;82.80;;;;;;5052831;28;20033;-62
2023/04/01 01:31:51;;;;;;;7.95;5.07;;;12.60;82.80;;;;;;5041940;28;20366;-62
2023/04/01 01:34:26;;;;;;;9.63;4.88;;;12.60;82.80;;;;;;5041876;28;20026;-62
2023/04/01 01:36:57;;;;;;;10.10;5.00;;;12.60;82.90;;;;;;5038597;28;20113;-62
2023/04/01 01:39:30;;;;;;;7.75;5.20;;;12.60;82.90;;;;;;5037108;28;20362;-62
2023/04/01 01:42:04;;;;;;;9.40;5.72;;;12.60;82.90;;;;;;5040452;28;20021;-62
2023/04/01 01:44:31;;;;;;;10.45;5.93;;;12.60;83.00;;;;;;5043310;28;20021;-62
2023/04/01 01:46:58;;;;;;;9.73;6.18;;;12.60;83.00;;;;;;5055892;28;20040;-62
2023/04/01 01:49:24;;;;;;;9.65;5.53;;;12.60;83.00;;;;;;5029103;28;20021;-62
2023/04/01 01:51:50;;;;;;;10.00;5.80;;;12.60;83.10;;;;;;5038443;28;20025;-62
2023/04/01 01:54:17;;;;;;;10.02;6.47;;;12.60;83.10;;;;;;5044466;28;20029;-62
2023/04/01 01:56:51;;;;;;;9.10;5.68;;;12.60;83.20;;;;;;5033785;28;20032;-62
2023/04/01 01:59:20;;;;;;;7.93;5.28;;;12.60;83.20;;;;;;5036442;28;20037;-62
2023/04/01 02:01:50;;;;;;;9.88;5.47;;;12.60;83.30;;;;;;5035242;28;20025;-62
2023/04/01 02:04:19;;;;;;;9.05;5.38;;;12.60;83.30;;;;;;5036443;28;20018;-62
2023/04/01 02:07:03;;;;;;;9.10;5.22;;;12.60;83.30;;;;;;5022791;28;20033;-62
2023/04/01 02:09:29;;;;;;;8.43;4.88;;;12.60;83.30;;;;;;5044881;28;20498;-62
2023/04/01 02:12:00;;;;;;;9.65;5.00;;;12.50;83.20;;;;;;5034650;28;20025;-62
2023/04/01 02:14:35;;;;;;;10.68;4.68;;;12.50;83.30;;;;;;5038041;28;20443;-62
2023/04/01 02:17:08;;;;;;;10.57;4.97;;;12.50;83.30;;;;;;5047160;28;20020;-62
2023/04/01 02:19:51;;;;;;;9.77;3.83;;;12.50;83.20;;;;;;5041075;28;20036;-62
2023/04/01 02:22:23;;;;;;;7.50;3.53;;;12.50;83.20;;;;;;5047822;28;20115;-62
2023/04/01 02:24:53;;;;;;;8.73;3.72;;;12.60;83.30;;;;;;5038855;28;20025;-62
2023/04/01 02:27:20;;;;;;;11.30;4.22;;;12.50;83.20;;;;;;5004878;28;20032;-62
2023/04/01 02:29:47;;;;;;;8.07;3.78;;;12.50;83.20;;;;;;5032033;28;20466;-62
2023/04/01 02:32:14;;;;;;;8.40;3.47;;;12.50;83.30;;;;;;5048380;28;20027;-61
2023/04/01 02:34:40;;;;;;;7.82;3.22;;;12.50;83.40;;;;;;5045073;28;20021;-62
2023/04/01 02:37:06;;;;;;;8.23;4.07;;;12.50;83.40;;;;;;5049953;28;20030;-61
2023/04/01 02:39:32;;;;;;;10.93;3.95;;;12.50;83.40;;;;;;5038314;28;20029;-62
2023/04/01 02:41:58;;;;;;;9.70;3.92;;;12.50;83.40;;;;;;5039522;28;20089;-62
2023/04/01 02:44:24;;;;;;;12.10;3.50;;;12.50;83.40;;;;;;5044486;28;20454;-62
2023/04/01 02:46:49;;;;;;;8.98;3.28;;;12.50;83.30;;;;;;5049683;28;20462;-61
2023/04/01 02:49:15;;;;;;;9.15;3.75;;;12.50;83.40;;;;;;5049361;28;20057;-62
2023/04/01 02:51:41;;;;;;;9.48;3.50;;;12.50;83.30;;;;;;5045675;28;20052;-61
2023/04/01 02:54:07;;;;;;;8.80;3.85;;;12.50;83.40;;;;;;5050213;28;20497;-62
2023/04/01 02:56:32;;;;;;;10.07;3.35;;;12.40;83.40;;;;;;5046917;28;20037;-62
2023/04/01 02:58:58;;;;;;;8.20;4.07;;;12.40;83.40;;;;;;5046346;28;20112;-62
2023/04/01 03:01:24;;;;;;;8.05;3.50;;;12.40;83.40;;;;;;5038843;28;20107;-62
2023/04/01 03:03:50;;;;;;;8.95;3.55;;;12.40;83.40;;;;;;5044506;28;20025;-62
2023/04/01 03:06:17;;;;;;;7.45;3.22;;;12.40;83.40;;;;;;5046737;28;20155;-62
2023/04/01 03:08:43;;;;;;;6.45;2.95;;;12.40;83.40;;;;;;5052485;28;20037;-62
2023/04/01 03:11:10;;;;;;;7.72;3.25;;;12.40;83.40;;;;;;5038774;28;20101;-62
2023/04/01 03:13:36;;;;;;;6.68;3.35;;;12.40;83.40;;;;;;5049888;28;20032;-62
2023/04/01 03:16:02;;;;;;;7.72;2.80;;;12.40;83.40;;;;;;5042843;28;20366;-62
2023/04/01 03:18:28;;;;;;;6.22;2.63;;;12.40;83.40;;;;;;5041969;28;20083;-62
2023/04/01 03:20:56;;;;;;;5.63;2.60;;;12.40;83.40;;;;;;5035193;28;20029;-62
2023/04/01 03:23:24;;;;;;;4.65;2.30;;;12.40;83.40;;;;;;5042127;28;20158;-62
2023/04/01 03:25:50;;;;;;;5.47;2.60;;;12.40;83.40;;;;;;5038766;28;20453;-62
2023/04/01 03:28:16;;;;;;;6.45;3.30;;;12.40;83.40;;;;;;5053128;28;20035;-62
2023/04/01 03:30:42;;;;;;;6.93;2.60;;;12.40;83.40;;;;;;5024709;28;20030;-62
2023/04/01 03:33:08;;;;;;;6.10;2.80;;;12.30;83.30;;;;;;5040133;28;20021;-62
2023/04/01 03:35:35;;;;;;;7.93;3.20;;;12.30;82.90;;;;;;5018023;28;20048;-62
2023/04/01 03:38:01;;;;;;;6.43;3.28;;;12.40;83.40;;;;;;5025456;28;20021;-62
2023/04/01 03:40:27;;;;;;;8.07;3.35;;;12.40;83.30;;;;;;5040194;28;20040;-62
2023/04/01 03:42:53;;;;;;;7.03;3.40;;;12.40;83.40;;;;;;5024493;28;20489;-61
2023/04/01 03:45:19;;;;;;;5.88;2.78;;;12.40;83.30;;;;;;5034700;28;20061;-62
2023/04/01 03:47:45;;;;;;;6.93;3.00;;;12.40;83.30;;;;;;5047257;28;20044;-62
2023/04/01 03:50:12;;;;;;;7.25;3.63;;;12.30;83.30;;;;;;5031977;28;20056;-62
2023/04/01 03:52:38;;;;;;;6.13;3.08;;;12.30;83.40;;;;;;5045649;28;20358;-62
2023/04/01 03:55:04;;;;;;;6.90;3.25;;;12.30;83.40;;;;;;5038221;28;20080;-61
2023/04/01 03:57:33;;;;;;;5.85;3.00;;;12.30;83.40;;;;;;5042789;28;20090;-61
2023/04/01 04:00:08;;;;;;;5.90;2.92;;;12.30;83.40;;;;;;5044287;28;20021;-62
2023/04/01 04:02:39;;;;;;;6.50;3.40;;;12.30;83.30;;;;;;5041803;28;20049;-62
2023/04/01 04:05:06;;;;;;;7.72;3.75;;;12.30;83.30;;;;;;5036082;28;20493;-62
2023/04/01 04:07:34;;;;;;;6.55;3.05;;;12.30;84.00;;;;;;5030208;28;20034;-62
2023/04/01 04:10:04;;;;;;;5.72;3.13;;;12.30;83.40;;;;;;5009789;28;20044;-62
2023/04/01 04:12:30;;;;;;;7.63;3.67;;;12.30;83.30;;;;;;5029484;28;20017;-62
2023/04/01 04:14:56;;;;;;;7.45;3.63;;;12.20;83.30;;;;;;5016620;28;20366;-62
2023/04/01 04:17:22;;;;;;;7.38;3.40;;;12.30;83.30;;;;;;5023888;28;20041;-62
2023/04/01 04:19:48;;;;;;;6.50;3.47;;;12.20;83.30;;;;;;5025842;28;20339;-62
2023/04/01 04:22:14;;;;;;;6.68;3.47;;;12.20;83.40;;;;;;5029860;28;20025;-62
2023/04/01 04:24:40;;;;;;;6.57;3.42;;;12.20;83.30;;;;;;5027255;28;20075;-61
2023/04/01 04:27:09;;;;;;;6.72;3.40;;;12.20;83.30;;;;;;5023994;28;20042;-61
2023/04/01 04:29:42;;;;;;;8.18;4.10;;;12.20;83.30;;;;;;5013330;28;20403;-61
2023/04/01 04:32:08;;;;;;;9.02;4.40;;;12.20;83.30;;;;;;5015002;28;20022;-62
2023/04/01 04:34:34;;;;;;;8.40;4.45;;;12.20;83.40;;;;;;5046366;28;20087;-62
2023/04/01 04:37:00;;;;;;;9.00;4.43;;;12.20;83.40;;;;;;5035909;28;20033;-62
2023/04/01 04:39:30;;;;;;;9.13;4.57;;;12.20;83.50;;;;;;5025777;28;20029;-62
2023/04/01 04:41:56;;;;;;;7.43;4.43;;;12.20;83.40;;;;;;5016136;28;20026;-62
2023/04/01 04:44:22;;;;;;;7.93;4.82;;;12.20;83.50;;;;;;5024530;28;20112;-62
2023/04/01 04:46:47;;;;;;;8.60;4.82;;;12.20;83.50;;;;;;5025626;28;20447;-61
2023/04/01 04:49:15;;;;;;;9.07;4.63;;;12.20;83.50;;;;;;5022481;28;20022;-62
2023/04/01 04:51:41;;;;;;;8.57;5.03;;;12.20;83.50;;;;;;5004062;28;20037;-62
2023/04/01 04:54:07;;;;;;;8.00;4.43;;;12.20;83.50;;;;;;5020464;28;20029;-61
2023/04/01 04:57:08;;;;;;;8.10;4.68;;;12.20;83.50;;;;;;5052907;28;20044;-61
2023/04/01 04:59:44;;;;;;;8.10;4.97;;;12.20;83.50;;;;;;5035191;28;20107;-62
2023/04/01 05:02:17;;;;;;;8.35;5.10;;;12.20;83.50;;;;;;5016717;28;20120;-61
2023/04/01 05:04:43;;;;;;;9.32;5.20;;;12.20;83.50;;;;;;5032104;28;20128;-62
2023/04/01 05:07:10;;;;;;;8.75;5.22;;;12.20;83.60;;;;;;5013454;28;20022;-62
2023/04/01 05:09:36;;;;;;;8.05;4.57;;;12.20;83.70;;;;;;5016977;28;20030;-62
2023/04/01 05:12:02;;;;;;;7.78;5.00;;;12.20;83.70;;;;;;5033675;28;20022;-62
2023/04/01 05:14:39;;;;;;;8.07;4.63;;;12.20;83.70;;;;;;5034556;28;20148;-61
2023/04/01 05:17:10;;;;;;;8.50;4.70;;;12.20;83.70;;;;;;5018135;28;20036;-61
2023/04/01 05:19:36;;;;;;;7.40;4.53;;;12.20;83.60;;;;;;5033617;28;20036;-61
2023/04/01 05:22:03;;;;;;;8.43;5.07;;;12.20;83.70;;;;;;5034578;28;20079;-61
2023/04/01 05:24:30;;;;;;;8.02;5.43;;;12.20;83.70;;;;;;5035651;28;20345;-61
2023/04/01 05:26:57;;;;;;;7.93;4.85;;;12.20;84.40;;;;;;5019022;28;20037;-61
2023/04/01 05:29:24;;;;;;;9.65;5.43;;;12.20;83.70;;;;;;5035593;28;20040;-62
2023/04/01 05:31:56;;;;;;;8.70;5.55;;;12.20;83.70;;;;;;5042641;28;20029;-61
2023/04/01 05:34:22;;;;;;;9.43;5.53;;;12.20;83.80;;;;;;5056927;28;20025;-61
2023/04/01 05:36:47;;;;;;;9.60;6.28;;;12.20;83.80;;;;;;5055693;28;20032;-61
2023/04/01 05:39:13;;;;;;;8.90;5.65;;;12.20;83.80;;;;;;5055701;28;20029;-61
2023/04/01 05:41:40;;;;;;;9.55;5.40;;;12.20;83.80;;;;;;5045728;28;20056;-61
2023/04/01 05:44:06;;;;;;;9.52;5.63;;;12.20;83.90;;;;;;5044857;28;20020;-62
2023/04/01 05:46:41;;;;;;;8.73;5.35;;;12.20;84.00;;;;;;5056086;28;20076;-61
2023/04/01 05:49:25;;;;;;;8.25;5.43;;;12.20;84.00;;;;;;5051935;28;20409;-62
2023/04/01 05:51:51;;;;;;;8.48;5.28;;;12.20;83.90;;;;;;5024672;28;20045;-61
2023/04/01 05:54:18;;;;;;;8.30;5.43;;;12.20;83.90;;;;;;5037150;28;20021;-61
2023/04/01 05:56:44;;;;;;;8.60;5.15;;;12.20;84.00;;;;;;5040036;28;20376;-61
2023/04/01 05:59:11;;;;;;;9.23;5.13;;;12.30;84.00;;;;;;5036689;28;20025;-61
2023/04/01 06:01:37;;;;;;;7.82;4.53;;;12.30;84.10;;;;;;5035930;28;20052;-61
2023/04/01 06:04:03;;;;;;;7.32;4.35;;;12.30;84.00;;;;;;5034740;28;20036;-61
2023/04/01 06:06:33;;;;;;;8.98;4.88;;;12.30;84.00;;;;;;5020404;28;20071;-61
2023/04/01 06:09:17;;;;;;;8.68;4.85;;;12.30;84.00;;;;;;5029746;28;20111;-61
2023/04/01 06:12:27;;;;;;;9.27;5.20;;;12.30;84.00;;;;;;5035353;28;20029;-61
2023/04/01 06:15:50;;;;;;;9.43;4.75;;;12.30;83.90;;;;;;5041993;28;20144;-61
2023/04/01 06:18:35;;;;;;;9.75;5.07;;;12.40;83.80;;;;;;5017976;28;20030;-61
2023/04/01 06:21:22;;;;;;;12.35;6.57;;;12.30;83.70;;;;;;5032444;28;20041;-62
2023/04/01 06:24:18;;;;;;;10.20;5.45;;;12.30;83.70;;;;;;5047031;28;20043;-61
2023/04/01 06:27:26;;;;;;;11.48;6.07;;;12.40;83.80;;;;;;5024174;28;20030;-61
2023/04/01 06:30:11;;;;;;;11.18;6.32;;;12.40;83.60;;;;;;5030797;28;20033;-62
2023/04/01 06:32:51;;;;;;;11.93;6.93;;;12.50;83.60;;;;;;5038377;28;20033;-61
2023/04/01 06:35:50;;;;;;;12.00;6.35;;;12.50;83.50;;;;;;5035060;28;20363;-61
2023/04/01 06:38:37;;;;;;;14.40;6.70;;;12.50;83.50;;;;;;5033367;28;20036;-61
2023/04/01 06:41:25;;;;;;;14.30;7.03;;;12.50;83.40;;;;;;5037354;28;20382;-61
2023/04/01 06:44:15;;;;;;;12.20;6.75;;;12.60;83.40;;;;;;5020964;28;20048;-61
2023/04/01 06:47:26;;;;;;;12.52;6.03;;;12.60;83.30;;;;;;5042211;28;20130;-61
2023/04/01 06:50:43;;;;;;;12.80;7.18;;;12.60;83.20;;;;;;5046699;28;20028;-62
2023/04/01 06:54:00;;;;;;;13.90;6.35;;;12.60;83.20;;;;;;5047194;28;20028;-61
2023/04/01 06:56:52;;;;;;;13.55;6.85;;;12.60;83.10;;;;;;5034486;28;20113;-60
2023/04/01 06:59:31;;;;;;;13.88;6.95;;;12.60;83.20;;;;;;5047697;28;20362;-61
2023/04/01 07:02:09;;;;;;;10.93;5.22;;;12.60;83.30;;;;;;5032526;28;20442;-61
2023/04/01 07:04:40;;;;;;;11.25;5.70;;;12.60;83.40;;;;;;5031876;28;20458;-60
2023/04/01 07:07:21;;;;;;;10.25;5.20;;;12.60;83.50;;;;;;5027812;28;20464;-60
2023/04/01 07:09:59;;;;;;;9.75;5.35;;;12.60;83.50;;;;;;5032090;28;20030;-61
2023/04/01 07:12:56;;;;;;;9.43;4.55;;;12.60;83.50;;;;;;5033668;28;20033;-62
2023/04/01 07:16:10;;;;;;;9.43;4.97;;;12.60;83.60;;;;;;5031399;28;20108;-61
2023/04/01 07:18:45;;;;;;;9.07;4.05;;;12.60;83.60;;;;;;5027339;28;20025;-61
2023/04/01 07:21:29;;;;;;;8.48;4.07;;;12.60;83.60;;;;;;5015841;28;20028;-61
2023/04/01 07:24:01;;;;;;;9.18;4.22;;;12.60;83.70;;;;;;5030551;28;20025;-60
2023/04/01 07:26:37;;;;;;;7.07;3.10;;;12.60;83.70;;;;;;5015048;28;20347;-60
2023/04/01 07:29:14;;;;;;;8.55;3.80;;;12.60;83.70;;;;;;5032128;28;20057;-61
2023/04/01 07:32:00;;;;;;;7.85;3.38;;;12.60;83.70;;;;;;5037721;28;20474;-62
2023/04/01 07:34:33;;;;;;;7.15;3.38;;;12.70;83.70;;;;;;5041308;28;20025;-61
2023/04/01 07:37:03;;;;;;;5.90;2.47;;;12.70;83.70;;;;;;5026771;28;20366;-61
2023/04/01 07:39:57;;;;;;;6.43;2.70;;;12.70;83.70;;;;;;5035674;28;20029;-60
2023/04/01 07:42:59;;;;;;;6.97;2.75;;;12.80;83.80;;;;;;5026435;28;20030;-61
2023/04/01 07:45:38;;;;;;;6.03;2.63;;;12.80;83.70;;;;;;5023850;28;20025;-61
2023/04/01 07:48:12;;;;;;;8.30;2.70;;;12.80;83.70;;;;;;5037837;28;20369;-61
2023/04/01 07:50:54;;;;;;;6.05;2.30;;;12.80;83.60;;;;;;5026041;28;20030;-60
2023/04/01 07:53:47;;;;;;;6.15;2.47;;;12.90;83.70;;;;;;5035717;28;20446;-61
2023/04/01 07:56:42;;;;;;;6.50;2.20;;;12.90;83.70;;;;;;5037810;28;20022;-62
2023/04/01 07:59:23;;;;;;;4.97;1.85;;;13.00;83.70;;;;;;5037211;28;20095;-61
2023/04/01 08:02:10;;;;;;;7.22;2.53;;;13.00;83.70;;;;;;5017282;28;20029;-60
2023/04/01 08:04:42;;;;;;;4.90;2.00;;;13.10;83.70;;;;;;5017578;28;20409;-60
2023/04/01 08:07:20;;;;;;;5.18;1.90;;;13.10;83.70;;;;;;5035095;28;20059;-61
2023/04/01 08:10:10;;;;;;;4.25;1.75;;;13.10;83.70;;;;;;5040563;28;20031;-61
2023/04/01 08:12:57;;;;;;;;;;;13.10;83.70;;;;;;5033376;28;20095;-62
2023/04/01 08:15:53;;;;;;;3.47;1.33;;;13.20;83.60;;;;;;5052034;28;20352;-61
2023/04/01 08:18:53;;;;;;;4.30;1.70;;;13.20;83.60;;;;;;5031607;28;20123;-61
2023/04/01 08:21:52;;;;;;;3.70;1.42;;;13.20;83.60;;;;;;5034151;28;20029;-62
2023/04/01 08:24:41;;;;;;;5.72;1.92;;;13.30;83.60;;;;;;5048178;28;20095;-61
2023/04/01 08:27:22;;;;;;;8.75;2.00;;;13.30;83.70;;;;;;5043733;28;20026;-62
2023/04/01 08:30:17;;;;;;;5.88;2.40;;;13.30;83.70;;;;;;5042082;28;20025;-61
2023/04/01 08:32:56;;;;;;;4.90;2.00;;;13.30;83.70;;;;;;5036788;28;20096;-62
2023/04/01 08:35:42;;;;;;;6.75;2.40;;;13.30;83.80;;;;;;5052818;28;20446;-62
2023/04/01 08:38:16;;;;;;;4.90;1.65;;;13.30;83.80;;;;;;5040541;28;20408;-62
2023/04/01 08:41:22;;;;;;;5.88;2.08;;;13.30;83.80;;;;;;5045417;28;20036;-61
2023/04/01 08:44:22;;;;;;;4.15;1.60;;;13.30;83.80;;;;;;5031863;28;20032;-61
2023/04/01 08:47:26;;;;;;;3.55;1.40;;;13.30;83.90;;;;;;5042329;28;20065;-61
2023/04/01 08:50:10;;;;;;;2.92;1.38;;;13.30;83.90;;;;;;5052282;28;20025;-61
2023/04/01 08:52:49;;;;;;;1.10;0.60;;;13.30;84.00;;;;;;5029213;28;20044;-62
2023/04/01 08:55:36;;;;;;;1.35;0.70;;;13.30;84.00;;;;;;5053773;28;20025;-62
2023/04/01 08:58:38;;;;;;;1.50;0.80;;;13.30;84.10;;;;;;5036630;28;20056;-61
2023/04/01 09:01:43;;;;;;;1.38;0.68;;;13.40;83.90;;;;;;5016321;28;20035;-65
2023/04/01 09:04:40;;;;;;;2.28;0.80;;;13.40;83.80;;;;;;5032344;28;20017;-65
2023/04/01 09:07:09;;;;;;;1.52;0.90;;;13.40;83.70;;;;;;5034253;28;20437;-65
2023/04/01 09:09:57;;;;;;;1.15;0.60;;;13.50;83.70;;;;;;5016618;28;20030;-65
2023/04/01 09:12:47;;;;;;;2.45;0.90;;;13.50;83.70;;;;;;5033215;28;20029;-65
2023/04/01 09:15:25;;;;;;;2.13;0.90;;;13.60;83.80;;;;;;5032206;28;20048;-65
2023/04/01 09:18:15;;;;;;;3.15;1.00;;;13.60;83.70;;;;;;5018319;28;20032;-64
2023/04/01 09:21:05;;;;;;;1.20;0.80;;;13.60;83.60;;;;;;5035497;28;20028;-65
2023/04/01 09:24:09;;;;;;;2.58;1.10;;;13.60;83.60;;;;;;5033575;28;20029;-65
2023/04/01 09:26:55;;;;;;;3.25;1.08;;;13.70;83.60;;;;;;5037309;28;20033;-65
2023/04/01 09:29:51;;;;;;;1.73;0.93;;;13.70;83.50;;;;;;5017961;28;20029;-66
2023/04/01 09:32:22;;;;;;;2.58;1.05;;;13.70;83.50;;;;;;5032765;28;20024;-64
2023/04/01 09:35:42;;;;;;;3.05;1.00;;;13.70;83.50;;;;;;5021738;28;20116;-66
2023/04/01 09:38:30;;;;;;;2.33;1.20;;;13.80;83.50;;;;;;5034844;28;20025;-66
2023/04/01 09:41:02;;;;;;;3.67;1.40;;;13.80;83.40;;;;;;5018803;28;20029;-66
2023/04/01 09:44:09;;;;;;;2.47;1.08;;;13.80;83.30;;;;;;5019432;28;20033;-66
2023/04/01 09:47:11;;;;;;;5.80;1.48;;;13.80;83.30;;;;;;5031568;28;20041;-66
2023/04/01 09:50:25;;;;;;;3.33;1.40;;;13.80;83.30;;;;;;5037353;28;20087;-65
2023/04/01 09:52:59;;;;;;;2.75;1.17;;;13.80;83.30;;;;;;5000890;28;20057;-66
2023/04/01 09:55:28;;;;;;;2.63;1.20;;;13.70;83.40;;;;;;5033775;28;20041;-66
2023/04/01 09:58:07;;;;;;;3.05;1.20;;;13.70;84.20;;;;;;5035541;28;20029;-66
2023/04/01 10:01:42;;;;;;;3.92;1.58;;;13.60;83.60;;;;;;5035593;28;20026;-66
2023/04/01 10:04:39;;;;;;;3.47;1.42;;;13.60;83.70;;;;;;5034996;28;20426;-66
2023/04/01 10:07:11;;;;;;;2.78;1.25;;;13.50;83.70;;;;;;5034436;28;20116;-66
2023/04/01 10:10:14;;;;;;;2.83;1.30;;;13.50;83.80;;;;;;5034071;28;20516;-66
2023/04/01 10:12:52;;;;;;;3.63;1.52;;;13.40;83.80;;;;;;5034712;28;20477;-65
2023/04/01 10:15:29;;;;;;;7.47;1.45;;;13.40;83.90;;;;;;5035483;28;20029;-65
2023/04/01 10:18:28;;;;;;;4.38;1.70;;;13.40;83.90;;;;;;5038655;28;20349;-66
2023/04/01 10:21:19;;;;;;;4.78;1.88;;;13.40;83.90;;;;;;5025668;28;20036;-65
2023/04/01 10:23:58;;;;;;;5.30;2.10;;;13.40;83.80;;;;;;5034713;28;20041;-65
2023/04/01 10:26:44;;;;;;;5.05;2.00;;;13.40;83.90;;;;;;5034246;28;20114;-65
2023/04/01 10:29:42;;;;;;;5.35;2.30;;;13.40;83.80;;;;;;5033895;28;20143;-65
2023/04/01 10:32:17;;;;;;;7.50;2.72;;;13.50;83.90;;;;;;5038782;28;20025;-66
2023/04/01 10:35:24;;;;;;;8.35;2.92;;;13.50;83.80;;;;;;5034632;28;20510;-65
2023/04/01 10:38:19;;;;;;;5.25;2.67;;;13.50;83.80;;;;;;5012137;28;20041;-65
2023/04/01 10:40:51;;;;;;;6.05;2.75;;;13.50;83.70;;;;;;5035971;28;20366;-65
2023/04/01 10:44:20;;;;;;;5.85;2.67;;;13.50;83.80;;;;;;5033845;28;20310;-66
2023/04/01 10:47:31;;;;;;;6.78;3.17;;;13.60;83.80;;;;;;5034516;28;20223;-65
2023/04/01 10:50:16;;;;;;;8.17;3.63;;;13.70;83.70;;;;;;5048371;28;20087;-65
2023/04/01 10:52:52;;;;;;;7.40;3.55;;;13.70;83.60;;;;;;5037248;28;20021;-65
2023/04/01 10:56:17;;;;;;;7.43;3.65;;;13.80;83.50;;;;;;5037148;28;20029;-66
2023/04/01 10:59:39;;;;;;;8.30;3.78;;;13.90;83.40;;;;;;5031863;28;20109;-65
2023/04/01 11:02:46;;;;;;;8.27;4.35;;;13.90;83.50;;;;;;5033989;28;20037;-66
2023/04/01 11:05:49;;;;;;;10.10;4.43;;;13.90;83.60;;;;;;5034420;28;20041;-66
2023/04/01 11:08:43;;;;;;;9.70;5.03;;;13.90;83.70;;;;;;5008571;28;20026;-66
2023/04/01 11:11:21;;;;;;;8.55;4.70;;;13.80;83.70;;;;;;5034189;28;20478;-66
2023/04/01 11:14:17;;;;;;;8.52;4.78;;;13.80;83.80;;;;;;5033588;28;20030;-66
2023/04/01 11:17:05;;;;;;;8.02;4.97;;;13.80;84.00;;;;;;5016265;28;20039;-65
2023/04/01 11:20:03;;;;;;;8.07;4.32;;;13.80;84.00;;;;;;5033145;28;20039;-65
2023/04/01 11:22:56;;;;;;;8.45;4.55;;;13.80;84.00;;;;;;5033069;28;20088;-65
2023/04/01 11:25:37;;;;;;;8.80;4.63;;;13.80;84.00;;;;;;5033992;28;20136;-66
2023/04/01 11:28:44;;;;;;;9.57;4.47;;;13.90;84.00;;;;;;5039472;28;20059;-65
2023/04/01 11:31:15;;;;;;;8.70;3.50;;;13.80;83.80;;;;;;5006783;28;20379;-65
2023/04/01 11:33:50;;;;;;;5.40;2.53;;;13.80;84.00;;;;;;5034044;28;20330;-65
2023/04/01 11:36:31;;;;;;;4.18;1.63;;;13.80;83.90;;;;;;5018142;28;20033;-65
2023/04/01 11:39:28;;;;;;;3.65;1.40;;;13.70;83.80;;;;;;5033218;28;20021;-65
2023/04/01 11:42:25;;;;;;;4.00;1.40;;;13.70;83.80;;;;;;5030513;28;20362;-65
2023/04/01 11:45:27;;;;;;;3.58;1.38;;;13.60;83.80;;;;;;5033531;28;20417;-64
2023/04/01 11:48:19;;;;;;;3.25;1.40;;;13.60;83.80;;;;;;5030767;28;20051;-65
2023/04/01 11:51:07;;;;;;;3.30;1.38;;;13.60;83.90;;;;;;5018922;28;20025;-65
2023/04/01 11:53:36;;;;;;;3.13;1.48;;;13.50;83.90;;;;;;5015990;28;20037;-65
2023/04/01 11:56:39;;;;;;;3.58;1.38;;;13.50;84.10;;;;;;5033485;28;20024;-65
2023/04/01 11:59:26;;;;;;;3.17;1.45;;;13.50;84.10;;;;;;5034892;28;20116;-65
2023/04/01 12:02:04;;;;;;;2.50;1.15;;;13.50;84.10;;;;;;5036075;28;20037;-65
2023/04/01 12:04:35;;;;;;;2.53;1.17;;;13.50;84.20;;;;;;5034276;28;20033;-66
2023/04/01 12:07:16;;;;;;;;;;;13.50;84.20;;;;;;5036609;28;20426;-65
2023/04/01 12:10:12;;;;;;;2.17;1.13;;;13.40;84.20;;;;;;5030522;28;19913;-65
2023/04/01 12:13:00;;;;;;;2.58;1.10;;;13.40;84.20;;;;;;5032531;28;20034;-65
2023/04/01 12:15:44;;;;;;;2.20;1.00;;;13.30;84.20;;;;;;5035930;28;20040;-65
2023/04/01 12:18:45;;;;;;;3.13;1.05;;;13.40;84.40;;;;;;5035022;28;20044;-65
2023/04/01 12:21:22;;;;;;;3.17;1.30;;;13.30;84.40;;;;;;5043483;28;20040;-65
2023/04/01 12:24:26;;;;;;;4.40;1.50;;;13.30;84.50;;;;;;5031495;28;20153;-65
2023/04/01 12:27:11;;;;;;;3.55;1.40;;;13.30;84.50;;;;;;5033527;28;20124;-65
2023/04/01 12:29:58;;;;;;;4.13;1.67;;;13.30;84.50;;;;;;5031767;28;20037;-65
2023/04/01 12:32:53;;;;;;;5.43;1.60;;;13.30;84.50;;;;;;5017952;28;20041;-65
2023/04/01 12:35:52;;;;;;;2.78;1.38;;;13.30;84.60;;;;;;5026372;28;20030;-65
2023/04/01 12:38:40;;;;;;;3.08;1.30;;;13.30;84.60;;;;;;5017466;28;20038;-65
2023/04/01 12:41:37;;;;;;;3.05;1.13;;;13.30;84.60;;;;;;5032698;28;20446;-65
2023/04/01 12:44:06;;;;;;;3.53;1.50;;;13.30;84.60;;;;;;5040509;28;20104;-65
2023/04/01 12:46:54;;;;;;;2.92;1.33;;;13.30;84.60;;;;;;5032656;28;20044;-66
2023/04/01 12:49:50;;;;;;;3.97;1.60;;;13.40;84.50;;;;;;5032330;28;20385;-66
2023/04/01 12:52:53;;;;;;;3.92;1.63;;;13.50;84.50;;;;;;5024622;28;20169;-66
2023/04/01 12:55:37;;;;;;;4.05;1.80;;;13.50;84.40;;;;;;5036894;28;20044;-65
2023/04/01 12:58:54;;;;;;;3.63;1.48;;;13.50;84.30;;;;;;5046379;28;20135;-65
2023/04/01 13:01:31;;;;;;;3.58;1.80;;;13.50;84.30;;;;;;5051335;28;20029;-65
2023/04/01 13:04:25;;;;;;;3.80;1.60;;;13.50;84.30;;;;;;5035000;28;20034;-66
2023/04/01 13:07:03;;;;;;;3.00;1.40;;;13.60;84.40;;;;;;5033330;28;20072;-65
2023/04/01 13:09:39;;;;;;;3.78;1.63;;;13.60;84.50;;;;;;5014742;28;20038;-65
2023/04/01 13:12:14;;;;;;;3.53;1.63;;;13.60;85.10;;;;;;5035765;28;20140;-66
2023/04/01 13:14:59;;;;;;;4.68;2.15;;;13.60;84.40;;;;;;5040965;28;20049;-66
2023/04/01 13:17:28;;;;;;;4.28;1.52;;;13.70;84.50;;;;;;5048275;28;20036;-65
2023/04/01 13:20:05;;;;;;;4.47;1.90;;;13.70;84.40;;;;;;5041743;28;20077;-66
2023/04/01 13:22:52;;;;;;;5.82;2.00;;;13.80;84.40;;;;;;5036299;28;20354;-65
2023/04/01 13:25:56;;;;;;;3.35;1.48;;;13.80;84.40;;;;;;5041822;28;20033;-65
2023/04/01 13:28:34;;;;;;;4.13;1.70;;;13.80;84.30;;;;;;5048899;28;20041;-66
2023/04/01 13:31:19;;;;;;;3.25;1.63;;;13.90;84.30;;;;;;5038408;28;20049;-65
2023/04/01 13:34:00;;;;;;;3.47;1.60;;;14.00;84.30;;;;;;5042462;28;20048;-65
2023/04/01 13:36:55;;;;;;;4.82;1.83;;;14.00;84.20;;;;;;5039022;28;20037;-65
2023/04/01 13:39:34;;;;;;;3.85;1.60;;;14.10;84.20;;;;;;5032479;28;20037;-65
2023/04/01 13:42:24;;;;;;;3.70;1.40;;;14.10;84.10;;;;;;5022091;28;20401;-65
2023/04/01 13:45:10;;;;;;;2.55;1.35;;;14.10;84.10;;;;;;5039459;28;20029;-66
2023/04/01 13:48:14;;;;;;;2.65;1.25;;;14.10;84.10;;;;;;5043507;28;20486;-65
2023/04/01 13:51:23;;;;;;;3.58;1.33;;;14.00;84.10;;;;;;5031205;28;20041;-66